Latest Weather Observations for Truscott

IDW60801

Issued at 7:33 am WST Friday 19 August 2022 (issued every 10 minutes, with the page automatically refreshed every 10 minutes)

About weather observations | Map of weather stations | Latest weather observations for WA | Other Formats
Station Details ID: 001020 Name: TRUSCOTT Lat: -14.09 Lon: 126.39 Height: 51.0 m
Data from the previous 72 hours. | See also: Recent months at Truscott
Date/Time
WST
Temp
°C
App
Temp
°C
Dew
Point
°C
Rel
Hum
%
Delta-T
°C
Wind Press
QNH
hPa
Press
MSL
hPa
Rain since
9am
mm
Dir  Spd
km/h
Gust
km/h
Spd
kts
Gust
kts
19/07:30am 23.3 23.3 12.3 50 6.3 SSE 4 6 2 3 1014.3 1014.0 0.0
19/07:00am 21.3 22.8 15.6 70 3.4 S 2 6 1 3 1014.3 1014.0 0.0
19/06:30am 18.2 18.4 14.7 80 2.0 S 7 9 4 5 1014.1 1013.8 0.0
19/06:00am 16.4 16.7 14.6 89 1.0 SSW 6 7 3 4 1013.8 1013.5 0.0
19/05:30am 16.3 16.4 14.0 86 1.3 S 6 7 3 4 1013.7 1013.4 0.0
19/05:00am 16.2 16.5 14.4 89 1.0 S 6 7 3 4 1013.6 1013.3 0.0
19/04:30am 17.2 17.3 15.4 89 1.1 SSW 9 11 5 6 1013.4 1013.1 0.0
19/04:00am 16.6 17.4 15.8 95 0.5 SSW 6 7 3 4 1013.3 1013.0 0.0
19/03:30am 17.0 17.6 15.9 93 0.6 S 7 9 4 5 1013.3 1013.0 0.0
19/03:00am 17.6 17.7 15.6 88 1.2 S 9 11 5 6 1013.3 1013.0 0.0
19/02:30am 17.4 18.0 15.2 87 1.3 SSW 6 9 3 5 1013.3 1013.0 0.0
19/02:00am 17.2 17.9 16.1 93 0.7 SSW 7 9 4 5 1013.6 1013.3 0.0
19/01:30am 17.9 19.1 16.8 93 0.7 SSW 6 7 3 4 1013.4 1013.1 0.0
19/01:00am 18.3 20.7 17.1 93 0.7 CALM 0 4 0 2 1013.5 1013.2 0.0
19/12:30am 18.5 21.2 17.7 95 0.5 CALM 0 0 0 0 1013.6 1013.3 0.0
19/12:00am 18.6 20.0 17.4 93 0.7 WSW 6 7 3 4 1013.9 1013.6 0.0
 
Date/Time
WST
Temp
°C
App
Temp
°C
Dew
Point
°C
Rel
Hum
%
Delta-T
°C
Wind Press
QNH
hPa
Press
MSL
hPa
Rain since
9am
mm
Dir  Spd
km/h
Gust
km/h
Spd
kts
Gust
kts
18/11:30pm 18.3 20.8 17.3 94 0.6 CALM 0 0 0 0 1014.2 1013.9 0.0
18/11:00pm 18.4 21.0 17.4 94 0.6 CALM 0 0 0 0 1014.5 1014.2 0.0
18/10:30pm 18.6 21.1 17.3 92 0.8 CALM 0 0 0 0 1014.5 1014.2 0.0
18/10:00pm 18.8 21.5 17.8 94 0.6 CALM 0 0 0 0 1014.7 1014.4 0.0
18/09:30pm 18.8 21.4 17.5 92 0.8 CALM 0 0 0 0 1015.0 1014.7 0.0
18/09:00pm 19.5 22.1 17.5 88 1.2 CALM 0 0 0 0 1014.5 1014.2 0.0
18/08:30pm 20.0 22.3 16.8 82 1.9 CALM 0 0 0 0 1014.4 1014.1 0.0
18/08:00pm 20.0 22.2 16.6 81 2.1 CALM 0 0 0 0 1014.2 1013.9 0.0
18/07:30pm 20.3 22.3 15.9 76 2.6 CALM 0 0 0 0 1014.0 1013.7 0.0
18/07:00pm 20.9 22.9 15.9 73 3.0 CALM 0 0 0 0 1013.8 1013.5 0.0
18/06:30pm 21.7 22.5 14.8 65 4.1 N 4 7 2 4 1013.4 1013.1 0.0
18/06:00pm 23.6 23.9 14.6 57 5.3 N 6 7 3 4 1013.2 1012.9 0.0
18/05:30pm 25.4 24.7 14.2 50 6.7 N 11 17 6 9 1012.8 1012.5 0.0
18/05:00pm 26.4 24.6 12.1 41 8.2 N 13 20 7 11 1012.5 1012.2 0.0
18/04:30pm 27.3 24.5 11.3 37 9.1 N 17 26 9 14 1012.4 1012.1 0.0
18/04:00pm 28.1 25.1 10.8 34 9.8 N 17 28 9 15 1012.0 1011.7 0.0
18/03:30pm 28.1 26.8 15.7 46 7.6 N 17 24 9 13 1011.8 1011.5 0.0
18/03:00pm 28.7 26.2 14.1 40 8.8 N 20 28 11 15 1011.7 1011.4 0.0
18/02:30pm 30.6 27.3 9.5 27 11.9 N 17 28 9 15 1011.6 1011.3 0.0
18/02:00pm 32.5 29.6 6.7 20 14.0 NW 11 17 6 9 1011.7 1011.4 0.0
18/01:30pm 32.5 29.2 4.3 17 14.7 NW 11 19 6 10 1012.2 1011.9 0.0
18/01:00pm 33.1 29.8 4.8 17 15.0 ENE 11 19 6 10 1012.4 1012.1 0.0
18/12:30pm 33.7 28.8 -3.5 9 17.2 SE 13 28 7 15 1012.9 1012.6 0.0
18/12:00pm 32.9 28.5 -2.7 10 16.6 SE 11 26 6 14 1013.5 1013.2 0.0
18/11:30am 32.1 27.0 -2.0 11 16.0 ENE 15 24 8 13 1014.0 1013.7 0.0
18/11:00am 32.2 28.6 3.2 16 14.9 E 11 19 6 10 1014.5 1014.2 0.0
18/10:30am 31.9 27.7 -1.0 12 15.7 SE 11 17 6 9 1014.9 1014.6 0.0
18/10:00am 30.9 26.6 3.0 17 14.1 SSE 15 20 8 11 1015.4 1015.1 0.0
18/09:30am 29.7 26.5 5.1 21 12.8 SSE 11 17 6 9 1015.9 1015.6 0.0
18/09:00am 28.3 26.3 8.6 29 10.8 SSE 9 13 5 7 1015.9 1015.6 0.0
18/08:30am 26.5 24.6 10.6 37 8.9 SSW 11 15 6 8 1016.1 1015.8 0.0
18/08:00am 25.0 23.8 12.9 47 7.0 S 11 15 6 8 1016.1 1015.8 0.0
18/07:30am 23.2 24.0 17.4 70 3.6 S 9 11 5 6 1015.9 1015.6 0.0
18/07:00am 21.1 22.4 18.5 85 1.6 SSE 9 13 5 7 1015.8 1015.5 0.0
18/06:30am 18.6 19.9 18.4 99 0.1 SSE 9 11 5 6 1015.5 1015.2 0.0
18/06:00am 16.9 18.1 16.9 100 0.0 S 6 7 3 4 1015.2 1014.9 0.0
18/05:30am 17.7 19.0 17.5 99 0.1 S 7 9 4 5 1014.9 1014.6 0.0
18/05:00am 18.9 19.9 17.7 93 0.7 S 9 11 5 6 1014.5 1014.2 0.0
18/04:30am 18.8 20.1 18.5 98 0.2 S 9 11 5 6 1014.2 1013.9 0.0
18/04:00am 18.8 20.0 18.3 97 0.3 SSW 9 11 5 6 1014.1 1013.8 0.0
18/03:30am 18.4 19.8 17.8 96 0.4 S 7 11 4 6 1014.0 1013.7 0.0
18/03:00am 18.0 19.4 17.4 96 0.4 S 6 7 3 4 1014.1 1013.8 0.0
18/02:30am 18.5 19.2 17.0 91 0.9 S 9 9 5 5 1014.3 1014.0 0.0
18/02:00am 18.5 20.1 18.3 99 0.1 S 7 9 4 5 1014.4 1014.1 0.0
18/01:30am 18.5 21.5 18.5 100 0.0 CALM 0 0 0 0 1014.5 1014.2 0.0
18/01:00am 18.6 21.7 18.6 100 0.0 CALM 0 0 0 0 1014.7 1014.4 0.0
18/12:30am 18.7 21.7 18.5 99 0.1 CALM 0 0 0 0 1015.0 1014.7 0.0
18/12:00am 18.6 21.4 17.9 96 0.4 CALM 0 0 0 0 1015.4 1015.1 0.0
 
Date/Time
WST
Temp
°C
App
Temp
°C
Dew
Point
°C
Rel
Hum
%
Delta-T
°C
Wind Press
QNH
hPa
Press
MSL
hPa
Rain since
9am
mm
Dir  Spd
km/h
Gust
km/h
Spd
kts
Gust
kts
17/11:30pm 18.4 21.0 17.6 95 0.5 CALM 0 0 0 0 1015.4 1015.1 0.0
17/11:00pm 18.4 20.9 17.2 93 0.7 CALM 0 0 0 0 1015.6 1015.3 0.0
17/10:30pm 18.5 21.3 17.9 96 0.4 CALM 0 0 0 0 1015.6 1015.3 0.0
17/10:00pm 18.3 19.6 17.1 93 0.7 ENE 6 7 3 4 1015.7 1015.4 0.0
17/09:30pm 18.9 20.8 16.7 87 1.3 ENE 2 6 1 3 1015.9 1015.6 0.0
17/09:00pm 19.1 21.5 16.9 87 1.3 CALM 0 0 0 0 1015.8 1015.5 0.0
17/08:30pm 19.7 21.8 16.3 81 2.0 CALM 0 0 0 0 1015.7 1015.4 0.0
17/08:00pm 21.5 22.2 16.2 72 3.2 ENE 7 9 4 5 1015.5 1015.2 0.0
17/07:30pm 22.5 22.8 16.1 67 3.9 ENE 9 13 5 7 1015.2 1014.9 0.0
17/07:00pm 23.3 23.4 15.4 61 4.7 ENE 9 13 5 7 1014.9 1014.6 0.0
17/06:30pm 24.4 23.8 14.5 54 5.9 NE 11 15 6 8 1014.5 1014.2 0.0
17/06:00pm 24.9 23.9 13.5 49 6.7 NE 11 15 6 8 1014.2 1013.9 0.0
17/05:30pm 25.7 25.1 14.5 50 6.7 NE 11 20 6 11 1014.0 1013.7 0.0
17/05:00pm 27.0 24.7 13.0 42 8.2 NNE 17 26 9 14 1013.9 1013.6 0.0
17/04:30pm 28.0 25.1 11.1 35 9.7 NNE 17 28 9 15 1013.7 1013.4 0.0
17/04:00pm 29.1 25.6 8.7 28 11.3 NNE 17 28 9 15 1013.7 1013.4 0.0
17/03:30pm 30.0 26.4 8.4 26 11.9 NNE 17 28 9 15 1013.5 1013.2 0.0
17/03:00pm 30.6 27.2 7.7 24 12.5 NNE 15 20 8 11 1013.3 1013.0 0.0
17/02:30pm 30.6 29.0 11.5 30 11.1 NNE 11 22 6 12 1013.3 1013.0 0.0
17/02:00pm 30.2 28.0 12.1 32 10.6 N 15 22 8 12 1013.6 1013.3 0.0
17/01:30pm 30.4 26.9 7.0 23 12.6 NNE 15 26 8 14 1013.9 1013.6 0.0
17/01:00pm 31.5 26.6 1.8 15 14.8 NE 17 26 9 14 1014.2 1013.9 0.0
17/12:30pm 31.5 27.0 -0.2 13 15.3 ENE 13 19 7 10 1014.7 1014.4 0.0
17/12:00pm 31.3 26.9 0.6 14 15.0 ENE 13 22 7 12 1014.9 1014.6 0.0
17/11:30am 30.5 25.9 -1.0 13 14.9 ENE 13 20 7 11 1015.4 1015.1 0.0
17/11:00am 30.2 25.2 -1.2 13 14.7 E 15 32 8 17 1015.8 1015.5 0.0
17/10:30am 30.4 25.4 -1.1 13 14.8 E 15 30 8 16 1016.1 1015.8 0.0
17/10:00am 30.7 26.0 -1.9 12 15.1 E 13 20 7 11 1016.5 1016.2 0.0
17/09:30am 30.2 26.5 2.5 17 13.9 SE 11 19 6 10 1016.8 1016.5 0.0
17/09:00am 28.7 26.2 6.7 25 11.7 SE 9 17 5 9 1016.9 1016.7 0.0
17/08:30am 27.0 25.2 8.0 30 10.2 ESE 7 11 4 6 1016.9 1016.7 0.0
17/08:00am 25.0 23.5 8.5 35 8.9 E 6 7 3 4 1016.6 1016.3 0.0
17/07:30am 23.6 23.3 8.5 38 8.1 CALM 0 4 0 2 1016.3 1016.0 0.0
17/07:00am 20.5 18.9 7.8 44 6.6 SSE 6 9 3 5 1016.0 1015.7 0.0
17/06:30am 15.6 14.9 6.9 56 4.3 CALM 0 0 0 0 1015.7 1015.4 0.0
17/06:00am 16.2 14.2 4.6 46 5.5 S 4 6 2 3 1015.2 1014.9 0.0
17/05:30am 16.6 13.9 3.7 42 6.0 S 7 9 4 5 1014.8 1014.5 0.0
17/05:00am 16.6 13.6 4.3 44 5.8 S 9 11 5 6 1014.4 1014.1 0.0
17/04:30am 17.3 15.1 5.3 45 5.8 SSW 6 9 3 5 1014.0 1013.7 0.0
17/04:00am 17.9 15.6 5.5 44 6.0 SSW 7 11 4 6 1013.8 1013.5 0.0
17/03:30am 18.3 15.2 3.8 38 6.8 SW 9 11 5 6 1013.7 1013.4 0.0
17/03:00am 17.3 14.7 4.3 42 6.1 SW 7 9 4 5 1013.6 1013.3 0.0
17/02:30am 17.8 15.5 4.7 42 6.3 SW 6 9 3 5 1013.7 1013.4 0.0
17/02:00am 18.0 15.9 6.5 47 5.7 SSW 7 9 4 5 1013.8 1013.5 0.0
17/01:30am 17.7 15.3 7.2 50 5.3 S 9 13 5 7 1014.0 1013.7 0.0
17/01:00am 17.5 17.0 12.0 70 3.0 SSW 6 9 3 5 1014.4 1014.1 0.0
17/12:30am 17.2 16.9 12.7 75 2.5 SSW 6 11 3 6 1014.5 1014.2 0.0
17/12:00am 16.2 15.7 12.2 77 2.2 SE 6 9 3 5 1014.6 1014.3 0.0
 
Date/Time
WST
Temp
°C
App
Temp
°C
Dew
Point
°C
Rel
Hum
%
Delta-T
°C
Wind Press
QNH
hPa
Press
MSL
hPa
Rain since
9am
mm
Dir  Spd
km/h
Gust
km/h
Spd
kts
Gust
kts
16/11:30pm 16.6 16.2 12.4 76 2.3 SE 6 7 3 4 1014.7 1014.4 0.0
16/11:00pm 16.9 16.3 12.2 74 2.6 SE 7 9 4 5 1014.8 1014.5 0.0
16/10:30pm 17.8 18.4 11.8 68 3.3 CALM 0 0 0 0 1015.0 1014.7 0.0
16/10:00pm 18.5 18.2 11.6 64 3.8 E 4 6 2 3 1014.8 1014.5 0.0
16/09:30pm 20.1 19.1 11.1 56 4.9 E 7 11 4 6 1014.6 1014.3 0.0
16/09:00pm 20.5 19.1 9.7 50 5.8 ENE 7 9 4 5 1014.6 1014.3 0.0
16/08:30pm 21.2 19.8 9.4 47 6.3 E 7 9 4 5 1014.5 1014.2 0.0
16/08:00pm 21.1 19.7 9.7 48 6.1 ENE 7 9 4 5 1014.3 1014.0 0.0
16/07:30pm 22.8 20.9 9.2 42 7.3 ENE 9 11 5 6 1014.1 1013.8 0.0
16/07:00pm 24.1 22.0 8.1 36 8.5 NE 9 15 5 8 1013.7 1013.4 0.0
16/06:30pm 24.8 22.3 8.3 35 8.8 NE 11 17 6 9 1013.3 1013.0 0.0
16/06:00pm 25.3 22.7 7.9 33 9.3 NE 11 17 6 9 1012.7 1012.4 0.0
16/05:30pm 26.2 23.1 7.3 30 10.0 NE 13 24 7 13 1012.4 1012.1 0.0
16/05:00pm 27.6 23.5 6.4 26 11.2 NE 17 26 9 14 1012.3 1012.0 0.0
16/04:30pm 28.9 24.1 4.4 21 12.6 NE 19 26 10 14 1012.0 1011.7 0.0
16/04:00pm 30.2 26.0 4.0 19 13.5 NE 15 24 8 13 1011.7 1011.4 0.0
16/03:30pm 30.7 26.0 2.9 17 14.0 NE 17 24 9 13 1011.7 1011.4 0.0
16/03:00pm 31.6 26.7 1.8 15 14.9 ENE 17 30 9 16 1011.6 1011.3 0.0
16/02:30pm 31.8 26.9 2.0 15 14.9 ENE 17 24 9 13 1011.6 1011.3 0.0
16/02:00pm 31.5 26.3 2.7 16 14.6 ENE 19 28 10 15 1011.6 1011.3 0.0
16/01:30pm 31.2 26.1 4.1 18 14.0 ENE 20 32 11 17 1011.9 1011.6 0.0
16/01:00pm 31.5 26.0 1.8 15 14.8 ENE 20 33 11 18 1012.3 1012.0 0.0
16/12:30pm 31.7 26.2 1.9 15 14.9 ENE 20 33 11 18 1012.8 1012.5 0.0
16/12:00pm 31.2 26.0 3.3 17 14.2 ENE 20 32 11 17 1013.1 1012.8 0.0
16/11:30am 31.1 26.1 4.8 19 13.8 ENE 20 37 11 20 1013.6 1013.3 0.0
16/11:00am 30.2 25.5 6.1 22 12.8 ENE 20 33 11 18 1014.2 1013.9 0.0
16/10:30am 30.1 25.5 5.4 21 13.0 E 19 32 10 17 1014.8 1014.5 0.0
16/10:00am 29.4 24.6 5.5 22 12.5 E 20 32 11 17 1015.2 1014.9 0.0
16/09:30am 28.5 24.0 6.0 24 11.8 E 19 26 10 14 1015.6 1015.3 0.0
16/09:00am 27.3 22.9 5.0 24 11.4 ESE 17 28 9 15 1015.6 1015.3 0.0
16/08:30am 26.4 22.6 5.9 27 10.6 E 15 26 8 14 1015.6 1015.3 0.0
16/08:00am 24.3 22.5 10.9 43 7.5 ESE 11 17 6 9 1015.4 1015.1 0.0

Other formats

Comma delimited format used in spreadsheet applications
http://www.bom.gov.au/fwo/IDW60801/IDW60801.95101.axf

JavaScript Object Notation format (JSON) in row-major order
http://www.bom.gov.au/fwo/IDW60801/IDW60801.95101.json

Data quality

Most of these data are generated automatically and are frequently updated. Quality checks on data are not normally performed. It is possible for incorrect values to appear. Refer to information at About Latest Weather Observations and please check the disclaimer before using these data.